createdAt,value
2022-10-13T00:00:10.478Z,20.8
2022-10-13T00:01:13.198Z,20.9
2022-10-13T00:02:16.893Z,20.8
2022-10-13T00:03:20.552Z,20.8
2022-10-13T00:04:22.781Z,20.7
2022-10-13T00:05:25.299Z,20.7
2022-10-13T00:06:27.488Z,20.9
2022-10-13T00:07:29.978Z,20.8
2022-10-13T00:08:32.441Z,21
2022-10-13T00:09:34.642Z,20.8
2022-10-13T00:10:37.109Z,20.9
2022-10-13T00:11:39.306Z,21.1
2022-10-13T00:12:41.774Z,20.9
2022-10-13T00:13:43.971Z,21
2022-10-13T00:14:46.179Z,21
2022-10-13T00:15:48.417Z,21
2022-10-13T00:16:50.662Z,20.9
2022-10-13T00:17:53.120Z,21
2022-10-13T00:18:55.318Z,21
2022-10-13T00:19:57.791Z,20.9
2022-10-13T00:21:00.100Z,20.9
2022-10-13T00:22:02.571Z,21
2022-10-13T00:23:05.047Z,21
2022-10-13T00:24:07.525Z,21
2022-10-13T00:25:09.716Z,20.9
2022-10-13T00:26:11.917Z,20.9
2022-10-13T00:27:14.402Z,21
2022-10-13T00:28:16.718Z,21.1
2022-10-13T00:29:19.409Z,20.9
2022-10-13T00:30:21.590Z,20.9
2022-10-13T00:31:23.780Z,21
2022-10-13T00:32:26.308Z,21
2022-10-13T00:33:28.775Z,20.9
2022-10-13T00:34:30.986Z,21.2
2022-10-13T00:35:32.907Z,21.1
2022-10-13T00:36:35.572Z,21
2022-10-13T00:37:37.763Z,21
2022-10-13T00:38:40.234Z,21
2022-10-13T00:39:42.456Z,21.1
2022-10-13T00:40:44.921Z,20.9
2022-10-13T00:41:47.449Z,21
2022-10-13T00:42:49.938Z,21
2022-10-13T00:43:52.142Z,20.9
2022-10-13T00:44:54.329Z,20.9
2022-10-13T00:45:56.531Z,21.1
2022-10-13T00:46:58.728Z,21.1
2022-10-13T00:48:01.257Z,21
2022-10-13T00:49:03.426Z,21.1
2022-10-13T00:50:05.606Z,21
2022-10-13T00:51:07.816Z,21
2022-10-13T00:52:10.346Z,21
2022-10-13T00:53:12.828Z,21
2022-10-13T00:54:15.058Z,21
2022-10-13T00:55:17.534Z,21.1
2022-10-13T00:56:20.000Z,21.1
2022-10-13T00:57:21.636Z,21
2022-10-13T00:58:23.843Z,21
2022-10-13T00:59:26.025Z,20.9
2022-10-13T01:00:28.080Z,21
2022-10-13T01:01:30.214Z,21
2022-10-13T01:02:32.126Z,21.1
2022-10-13T01:03:34.381Z,21.1
2022-10-13T01:04:36.857Z,21.1
2022-10-13T01:05:39.325Z,21
2022-10-13T01:06:41.257Z,21.1
2022-10-13T01:07:43.495Z,21.1
2022-10-13T01:08:45.677Z,21
2022-10-13T01:09:48.142Z,21.1
2022-10-13T01:10:50.634Z,21.2
2022-10-13T01:11:53.106Z,21
2022-10-13T01:12:55.315Z,21.1
2022-10-13T01:13:57.782Z,21.2
2022-10-13T01:14:59.988Z,21.1
2022-10-13T01:16:02.174Z,21.1
2022-10-13T01:17:04.652Z,21.2
2022-10-13T01:18:07.118Z,21.2
2022-10-13T01:19:09.369Z,21
2022-10-13T01:20:11.842Z,21.1
2022-10-13T01:21:14.319Z,21.1
2022-10-13T01:22:17.716Z,21.2
2022-10-13T01:23:21.967Z,21
2022-10-13T01:24:24.178Z,21.1
2022-10-13T01:25:26.381Z,21.2
2022-10-13T01:26:28.855Z,21.1
2022-10-13T01:27:31.047Z,21.1
2022-10-13T01:28:33.630Z,21.1
2022-10-13T01:29:36.008Z,21.1
2022-10-13T01:30:38.483Z,21
2022-10-13T01:31:40.947Z,21.2
2022-10-13T01:32:43.142Z,21.1
2022-10-13T01:33:45.496Z,21.2
2022-10-13T01:34:47.742Z,21.1
2022-10-13T01:35:49.921Z,21.2
2022-10-13T01:36:52.115Z,21.1
2022-10-13T01:37:54.623Z,21.1
2022-10-13T01:38:57.191Z,21.2
2022-10-13T01:39:59.661Z,21.1
2022-10-13T01:41:02.148Z,21.2
2022-10-13T01:42:04.625Z,21.1
2022-10-13T01:43:07.103Z,21.1
2022-10-13T01:44:09.306Z,21.1
2022-10-13T01:45:11.238Z,21.1
2022-10-13T01:46:13.711Z,21.2
2022-10-13T01:47:15.646Z,21.1
2022-10-13T01:48:18.139Z,21.1
2022-10-13T01:49:20.341Z,21
2022-10-13T01:50:22.575Z,21.2
2022-10-13T01:51:25.027Z,21.2
2022-10-13T01:52:27.495Z,21.1
2022-10-13T01:53:29.963Z,21.3
2022-10-13T01:54:32.471Z,21.2
2022-10-13T01:55:34.949Z,21.1
2022-10-13T01:56:37.115Z,21.1
2022-10-13T01:57:39.312Z,21.1
2022-10-13T01:58:40.937Z,21.2
2022-10-13T01:59:43.122Z,21.1
2022-10-13T02:00:45.697Z,21.2
2022-10-13T02:01:47.818Z,21.1
2022-10-13T02:02:50.011Z,21.2
2022-10-13T02:03:52.483Z,21.2
2022-10-13T02:04:54.689Z,21.2
2022-10-13T02:05:57.224Z,21.1
2022-10-13T02:06:59.407Z,21.2
2022-10-13T02:08:01.894Z,21.2
2022-10-13T02:09:04.071Z,21.2
2022-10-13T02:10:06.598Z,21.2
2022-10-13T02:11:09.082Z,21.1
2022-10-13T02:12:11.291Z,21.2
2022-10-13T02:13:13.756Z,21.2
2022-10-13T02:14:15.964Z,21.1
2022-10-13T02:15:17.874Z,21.2
2022-10-13T02:16:20.352Z,21.1
2022-10-13T02:17:21.980Z,21.2
2022-10-13T02:18:24.465Z,21.1
2022-10-13T02:19:26.936Z,21.2
2022-10-13T02:20:29.404Z,21.2
2022-10-13T02:21:31.912Z,21.3
2022-10-13T02:22:34.377Z,21.1
2022-10-13T02:23:36.301Z,21.2
2022-10-13T02:24:38.771Z,21.1
2022-10-13T02:25:41.399Z,21.2
2022-10-13T02:26:43.567Z,21.2
2022-10-13T02:27:45.779Z,21.1
2022-10-13T02:28:48.074Z,21.2
2022-10-13T02:29:50.141Z,21.1
2022-10-13T02:30:52.606Z,21.2
2022-10-13T02:31:54.860Z,21.2
2022-10-13T02:32:56.775Z,21.1
2022-10-13T02:33:59.259Z,21.2
2022-10-13T02:35:01.472Z,21.2
2022-10-13T02:36:03.952Z,21.2
2022-10-13T02:37:06.193Z,21.1
2022-10-13T02:38:08.892Z,21.3
2022-10-13T02:39:11.095Z,21.1
2022-10-13T02:40:13.565Z,21.1
2022-10-13T02:41:15.812Z,21.3
2022-10-13T02:42:18.166Z,21.1
2022-10-13T02:43:22.258Z,21.1
2022-10-13T02:44:24.731Z,21.3
2022-10-13T02:45:26.899Z,21.3
2022-10-13T02:46:29.392Z,21.2
2022-10-13T02:47:31.871Z,21.2
2022-10-13T02:48:34.070Z,21.3
2022-10-13T02:49:36.369Z,21.3
2022-10-13T02:50:38.578Z,21.3
2022-10-13T02:51:40.954Z,21.3
2022-10-13T02:52:43.473Z,21.2
2022-10-13T02:53:45.946Z,21.3
2022-10-13T02:54:48.152Z,21.3
2022-10-13T02:55:50.617Z,21.2
2022-10-13T02:56:53.143Z,21.2
2022-10-13T02:57:55.335Z,21.3
2022-10-13T02:58:57.242Z,21.3
2022-10-13T02:59:58.862Z,21.2
2022-10-13T03:01:01.496Z,21.2
2022-10-13T03:02:03.900Z,21.1
2022-10-13T03:03:06.112Z,21.1
2022-10-13T03:04:08.594Z,21.3
2022-10-13T03:05:11.073Z,21.1
2022-10-13T03:06:12.983Z,21.2
2022-10-13T03:07:15.181Z,21.1
2022-10-13T03:08:17.426Z,21.3
2022-10-13T03:09:19.892Z,21
2022-10-13T03:10:22.356Z,21.1
2022-10-13T03:11:24.276Z,21.2
2022-10-13T03:12:27.084Z,21
2022-10-13T03:13:29.271Z,21.2
2022-10-13T03:14:31.186Z,21.1
2022-10-13T03:15:33.706Z,21.1
2022-10-13T03:16:35.630Z,20.9
2022-10-13T03:17:38.099Z,21
2022-10-13T03:18:40.582Z,21.1
2022-10-13T03:19:42.506Z,21
2022-10-13T03:20:44.728Z,21
2022-10-13T03:21:46.959Z,21
2022-10-13T03:22:50.649Z,21
2022-10-13T03:23:52.633Z,21
2022-10-13T03:24:54.848Z,21
2022-10-13T03:25:57.334Z,21
2022-10-13T03:26:59.820Z,20.9
2022-10-13T03:28:02.373Z,21
2022-10-13T03:29:05.022Z,21
2022-10-13T03:30:06.914Z,20.9
2022-10-13T03:31:08.840Z,21
2022-10-13T03:32:11.321Z,20.9
2022-10-13T03:33:13.791Z,20.9
2022-10-13T03:34:16.265Z,21
2022-10-13T03:35:18.759Z,20.9
2022-10-13T03:36:20.378Z,20.8
2022-10-13T03:37:22.849Z,21
2022-10-13T03:38:24.874Z,20.8
2022-10-13T03:39:27.348Z,20.9
2022-10-13T03:40:29.870Z,20.9
2022-10-13T03:41:32.342Z,20.9
2022-10-13T03:42:34.802Z,20.9
2022-10-13T03:43:37.359Z,20.9
2022-10-13T03:44:39.271Z,20.8
2022-10-13T03:45:41.739Z,20.9
2022-10-13T03:46:43.907Z,21
2022-10-13T03:47:46.376Z,20.9
2022-10-13T03:48:48.582Z,20.9
2022-10-13T03:49:51.060Z,20.8
2022-10-13T03:50:53.253Z,21
2022-10-13T03:51:55.738Z,20.7
2022-10-13T03:52:57.908Z,20.8
2022-10-13T03:54:00.106Z,20.8
2022-10-13T03:55:02.650Z,20.9
2022-10-13T03:56:04.547Z,20.9
2022-10-13T03:57:06.470Z,20.9
2022-10-13T03:58:08.660Z,20.9
2022-10-13T03:59:11.229Z,20.8
2022-10-13T04:00:13.425Z,20.9
2022-10-13T04:01:15.897Z,20.8
2022-10-13T04:02:18.911Z,20.8
2022-10-13T04:03:22.953Z,20.8
2022-10-13T04:04:24.903Z,20.8
2022-10-13T04:05:27.371Z,20.7
2022-10-13T04:06:29.558Z,20.8
2022-10-13T04:07:32.039Z,20.9
2022-10-13T04:08:34.236Z,20.8
2022-10-13T04:09:36.421Z,20.8
2022-10-13T04:10:38.671Z,20.8
2022-10-13T04:11:40.870Z,20.7
2022-10-13T04:12:43.331Z,20.8
2022-10-13T04:13:45.513Z,20.7
2022-10-13T04:14:48.139Z,20.7
2022-10-13T04:15:50.621Z,20.7
2022-10-13T04:16:52.812Z,20.8
2022-10-13T04:17:55.294Z,20.7
2022-10-13T04:18:57.761Z,20.8
2022-10-13T04:19:59.687Z,20.7
2022-10-13T04:21:01.882Z,20.7
2022-10-13T04:22:04.352Z,20.8
2022-10-13T04:23:06.549Z,20.8
2022-10-13T04:24:08.736Z,20.7
2022-10-13T04:25:10.928Z,20.6
2022-10-13T04:26:13.166Z,20.7
2022-10-13T04:27:15.353Z,20.7
2022-10-13T04:28:17.932Z,20.8
2022-10-13T04:29:20.583Z,20.7
2022-10-13T04:30:23.393Z,20.8
2022-10-13T04:31:25.904Z,20.7
2022-10-13T04:32:28.438Z,20.7
2022-10-13T04:33:30.948Z,20.7
2022-10-13T04:34:33.431Z,20.6
2022-10-13T04:35:35.630Z,20.7
2022-10-13T04:36:37.828Z,20.7
2022-10-13T04:38:44.996Z,20.7
2022-10-13T04:39:46.913Z,20.7
2022-10-13T04:40:49.100Z,20.7
2022-10-13T04:41:51.342Z,20.7
2022-10-13T04:42:53.829Z,20.7
2022-10-13T04:43:56.306Z,20.8
2022-10-13T04:44:58.490Z,20.6
2022-10-13T04:46:00.780Z,20.8
2022-10-13T04:47:03.010Z,20.7
2022-10-13T04:48:05.485Z,20.7
2022-10-13T04:49:07.701Z,20.7
2022-10-13T04:50:09.633Z,20.6
2022-10-13T04:51:11.838Z,20.8
2022-10-13T04:52:13.756Z,20.8
2022-10-13T04:54:20.943Z,20.7
2022-10-13T04:55:23.121Z,20.7
2022-10-13T04:56:25.316Z,20.7
2022-10-13T04:57:27.278Z,20.7
2022-10-13T04:58:29.466Z,20.7
2022-10-13T04:59:31.393Z,20.7
2022-10-13T05:00:33.971Z,20.7
2022-10-13T05:01:36.445Z,20.7
2022-10-13T05:02:38.626Z,20.8
2022-10-13T05:03:41.092Z,20.7
2022-10-13T05:04:43.570Z,20.6
2022-10-13T05:05:45.775Z,20.8
2022-10-13T05:07:52.657Z,20.6
2022-10-13T05:08:54.860Z,20.7
2022-10-13T05:09:57.329Z,20.5
2022-10-13T05:10:59.234Z,20.5
2022-10-13T05:12:01.702Z,20.6
2022-10-13T05:13:04.222Z,20.6
2022-10-13T05:14:06.681Z,20.5
2022-10-13T05:15:09.159Z,20.6
2022-10-13T05:16:11.346Z,20.8
2022-10-13T05:17:13.925Z,20.6
2022-10-13T05:18:15.829Z,20.7
2022-10-13T05:19:18.298Z,20.7
2022-10-13T05:20:20.490Z,20.7
2022-10-13T05:21:22.710Z,20.7
2022-10-13T05:22:24.338Z,20.7
2022-10-13T05:23:26.841Z,20.7
2022-10-13T05:24:29.314Z,20.7
2022-10-13T05:26:36.236Z,20.6
2022-10-13T05:27:38.170Z,20.7
2022-10-13T05:28:40.443Z,20.6
2022-10-13T05:29:43.311Z,20.5
2022-10-13T05:30:45.786Z,20.6
2022-10-13T05:31:47.714Z,20.5
2022-10-13T05:33:55.303Z,20.6
2022-10-13T05:34:57.518Z,20.6
2022-10-13T05:35:59.712Z,20.7
2022-10-13T05:37:01.644Z,20.5
2022-10-13T05:38:03.863Z,20.6
2022-10-13T05:39:05.776Z,20.6
2022-10-13T05:40:07.402Z,20.6
2022-10-13T05:41:09.358Z,20.6
2022-10-13T05:42:11.950Z,20.6
2022-10-13T05:43:14.432Z,20.7
2022-10-13T05:44:17.008Z,20.6
2022-10-13T05:45:19.254Z,20.5
2022-10-13T05:46:21.465Z,20.6
2022-10-13T05:47:23.686Z,20.6
2022-10-13T05:48:25.959Z,20.7
2022-10-13T05:49:27.627Z,20.7
2022-10-13T05:50:29.844Z,20.6
2022-10-13T05:51:32.032Z,20.5
2022-10-13T05:52:34.498Z,20.6
2022-10-13T05:53:36.404Z,20.6
2022-10-13T05:54:38.902Z,20.7
2022-10-13T05:55:41.085Z,20.5
2022-10-13T05:56:43.292Z,20.7
2022-10-13T05:57:45.503Z,20.5
2022-10-13T05:58:47.996Z,20.5
2022-10-13T05:59:50.450Z,20.5
2022-10-13T06:00:52.383Z,20.5
2022-10-13T06:01:54.769Z,20.6
2022-10-13T06:02:57.492Z,20.6
2022-10-13T06:04:00.026Z,20.5
2022-10-13T06:05:02.221Z,20.6
2022-10-13T06:06:04.716Z,20.5
2022-10-13T06:07:06.923Z,20.5
2022-10-13T06:08:08.843Z,20.7
2022-10-13T06:09:11.011Z,20.6
2022-10-13T06:10:13.208Z,20.7
2022-10-13T06:11:15.678Z,20.6
2022-10-13T06:12:18.775Z,20.5
2022-10-13T06:13:22.829Z,20.6
2022-10-13T06:14:25.310Z,20.6
2022-10-13T06:15:29.032Z,20.5
2022-10-13T06:16:31.235Z,20.6
2022-10-13T06:17:33.423Z,20.7
2022-10-13T06:18:35.626Z,20.6
2022-10-13T06:19:38.155Z,20.5
2022-10-13T06:20:40.632Z,20.6
2022-10-13T06:21:43.101Z,20.5
2022-10-13T06:22:45.278Z,20.6
2022-10-13T06:23:47.738Z,20.5
2022-10-13T06:24:50.214Z,20.6
2022-10-13T06:25:52.409Z,20.5
2022-10-13T06:26:54.612Z,20.6
2022-10-13T06:27:57.096Z,20.7
2022-10-13T06:29:00.578Z,20.5
2022-10-13T06:30:02.748Z,20.5
2022-10-13T06:31:04.964Z,20.5
2022-10-13T06:32:07.579Z,20.5
2022-10-13T06:33:09.771Z,20.4
2022-10-13T06:34:11.685Z,20.4
2022-10-13T06:35:14.238Z,20.7
2022-10-13T06:36:16.737Z,20.5
2022-10-13T06:38:24.193Z,20.6
2022-10-13T06:39:26.396Z,20.5
2022-10-13T06:40:28.859Z,20.5
2022-10-13T06:41:30.848Z,20.4
2022-10-13T06:42:34.715Z,20.5
2022-10-13T06:44:42.064Z,20.5
2022-10-13T06:45:44.778Z,20.6
2022-10-13T06:46:47.490Z,20.5
2022-10-13T06:47:49.410Z,20.6
2022-10-13T06:48:51.886Z,20.6
2022-10-13T06:49:53.553Z,20.7
2022-10-13T06:50:56.071Z,20.5
2022-10-13T06:51:58.006Z,20.4
2022-10-13T06:53:00.194Z,20.6
2022-10-13T06:54:02.402Z,20.5
2022-10-13T06:55:04.884Z,20.6
2022-10-13T06:56:07.094Z,20.5
2022-10-13T06:57:09.005Z,20.5
2022-10-13T06:58:11.222Z,20.5
2022-10-13T06:59:13.146Z,20.5
2022-10-13T07:00:15.376Z,20.5
2022-10-13T07:01:17.841Z,20.5
2022-10-13T07:02:21.319Z,20.6
2022-10-13T07:03:24.481Z,20.5
2022-10-13T07:04:26.970Z,20.4
2022-10-13T07:05:29.468Z,20.6
2022-10-13T07:06:32.011Z,20.6
2022-10-13T07:07:34.488Z,20.5
2022-10-13T07:08:36.966Z,20.5
2022-10-13T07:09:39.434Z,20.4
2022-10-13T07:10:41.966Z,20.5
2022-10-13T07:11:44.162Z,20.5
2022-10-13T07:12:46.647Z,20.4
2022-10-13T07:13:49.207Z,20.5
2022-10-13T07:14:51.348Z,20.6
2022-10-13T07:15:53.557Z,20.5
2022-10-13T07:16:55.769Z,20.5
2022-10-13T07:17:58.006Z,20.5
2022-10-13T07:19:00.487Z,20.5
2022-10-13T07:21:07.974Z,20.4
2022-10-13T07:22:10.531Z,20.5
2022-10-13T07:23:13.022Z,20.5
2022-10-13T07:24:15.626Z,20.5
2022-10-13T07:25:17.521Z,20.5
2022-10-13T07:26:19.762Z,20.4
2022-10-13T07:27:22.510Z,20.6
2022-10-13T07:28:26.573Z,20.6
2022-10-13T07:29:28.972Z,20.4
2022-10-13T07:30:31.184Z,20.4
2022-10-13T07:31:33.666Z,20.5
2022-10-13T07:32:36.154Z,20.6
2022-10-13T07:33:38.378Z,20.5
2022-10-13T07:34:40.596Z,20.5
2022-10-13T07:35:43.075Z,20.6
2022-10-13T07:36:45.260Z,20.5
2022-10-13T07:37:47.809Z,20.5
2022-10-13T07:38:50.288Z,20.6
2022-10-13T07:39:52.758Z,20.4
2022-10-13T07:40:55.253Z,20.6
2022-10-13T07:41:57.189Z,20.5
2022-10-13T07:42:59.695Z,20.5
2022-10-13T07:44:02.284Z,20.4
2022-10-13T07:45:04.762Z,20.4
2022-10-13T07:46:06.968Z,20.6
2022-10-13T07:47:09.176Z,20.4
2022-10-13T07:48:11.764Z,20.5
2022-10-13T07:50:19.038Z,20.4
2022-10-13T07:51:21.834Z,20.4
2022-10-13T07:52:23.909Z,20.6
2022-10-13T07:53:26.535Z,20.5
2022-10-13T07:54:28.999Z,20.3
2022-10-13T07:55:31.484Z,20.5
2022-10-13T07:56:33.686Z,20.5
2022-10-13T07:57:35.888Z,20.5
2022-10-13T07:58:38.085Z,20.5
2022-10-13T07:59:40.566Z,20.4
2022-10-13T08:00:42.473Z,20.4
2022-10-13T08:01:44.778Z,20.5
2022-10-13T08:02:46.875Z,20.5
2022-10-13T08:03:51.228Z,20.4
2022-10-13T08:04:53.177Z,20.4
2022-10-13T08:05:55.514Z,20.5
2022-10-13T08:06:57.711Z,20.4
2022-10-13T08:08:00.194Z,20.6
2022-10-13T08:09:02.833Z,20.5
2022-10-13T08:10:05.318Z,20.4
2022-10-13T08:11:07.520Z,20.4
2022-10-13T08:12:09.747Z,20.6
2022-10-13T08:13:11.709Z,20.4
2022-10-13T08:14:13.652Z,20.4
2022-10-13T08:15:16.134Z,20.4
2022-10-13T08:16:18.369Z,20.6
2022-10-13T08:17:21.657Z,20.4
2022-10-13T08:18:24.635Z,20.4
2022-10-13T08:19:27.192Z,20.4
2022-10-13T08:22:39.706Z,20.4
2022-10-13T08:23:41.903Z,20.5
2022-10-13T08:24:44.004Z,20.5
2022-10-13T08:25:46.233Z,20.4
2022-10-13T08:26:48.431Z,20.4
2022-10-13T08:27:54.708Z,20.4
2022-10-13T08:30:02.593Z,20.5
2022-10-13T08:31:05.012Z,20.4
2022-10-13T08:32:07.893Z,20.4
2022-10-13T08:33:10.069Z,20.5
2022-10-13T08:34:12.273Z,20.5
2022-10-13T08:35:14.214Z,20.4
2022-10-13T08:36:16.720Z,20.5
2022-10-13T08:37:18.927Z,20.4
2022-10-13T08:38:21.153Z,20.5
2022-10-13T08:39:23.351Z,20.4
2022-10-13T08:40:26.061Z,20.5
2022-10-13T08:41:28.284Z,20.5
2022-10-13T08:42:30.772Z,20.3
2022-10-13T08:43:33.282Z,20.4
2022-10-13T08:45:42.522Z,20.5
2022-10-13T08:46:44.888Z,20.5
2022-10-13T08:47:47.354Z,20.3
2022-10-13T08:48:49.829Z,20.4
2022-10-13T08:50:57.296Z,20.4
2022-10-13T08:51:59.803Z,20.4
2022-10-13T08:53:02.003Z,20.4
2022-10-13T08:54:04.241Z,20.4
2022-10-13T08:55:06.425Z,20.4
2022-10-13T08:56:09.014Z,20.3
2022-10-13T08:57:11.598Z,20.5
2022-10-13T08:58:13.522Z,20.6
2022-10-13T08:59:15.723Z,20.3
2022-10-13T09:00:17.936Z,20.3
2022-10-13T09:01:20.272Z,20.5
2022-10-13T09:02:22.662Z,20.3
2022-10-13T09:03:25.146Z,20.4
2022-10-13T09:04:27.352Z,20.3
2022-10-13T09:05:29.824Z,20.4
2022-10-13T09:06:32.304Z,20.4
2022-10-13T09:07:34.583Z,20.4
2022-10-13T09:08:36.790Z,20.5
2022-10-13T09:09:39.329Z,20.3
2022-10-13T09:10:41.233Z,20.4
2022-10-13T09:11:43.857Z,20.3
2022-10-13T09:12:46.344Z,20.4
2022-10-13T09:13:48.270Z,20.5
2022-10-13T09:14:50.485Z,20.4
2022-10-13T09:15:52.948Z,20.5
2022-10-13T09:16:55.137Z,20.4
2022-10-13T09:17:57.609Z,20.4
2022-10-13T09:18:59.802Z,20.3
2022-10-13T09:20:02.049Z,20.6
2022-10-13T09:21:04.338Z,20.3
2022-10-13T09:22:06.547Z,20.3
2022-10-13T09:23:08.802Z,20.3
2022-10-13T09:24:10.715Z,20.5
2022-10-13T09:25:13.240Z,20.5
2022-10-13T09:26:15.455Z,20.3
2022-10-13T09:27:18.122Z,20.4
2022-10-13T09:28:20.735Z,20.4
2022-10-13T09:29:23.259Z,20.3
2022-10-13T09:30:25.741Z,20.5
2022-10-13T09:31:27.945Z,20.3
2022-10-13T09:32:30.215Z,20.5
2022-10-13T09:33:32.728Z,20.4
2022-10-13T09:34:34.921Z,20.4
2022-10-13T09:35:36.853Z,20.4
2022-10-13T09:36:38.808Z,20.4
2022-10-13T09:37:41.296Z,20.4
2022-10-13T09:38:43.634Z,20.4
2022-10-13T09:39:46.165Z,20.4
2022-10-13T09:40:48.115Z,20.4
2022-10-13T09:41:50.321Z,20.2
2022-10-13T09:42:52.857Z,20.4
2022-10-13T09:43:55.352Z,20.3
2022-10-13T09:44:57.861Z,20.5
2022-10-13T09:46:00.341Z,20.4
2022-10-13T09:47:02.842Z,20.4
2022-10-13T09:48:05.081Z,20.3
2022-10-13T09:49:07.297Z,20.6
2022-10-13T09:50:08.926Z,20.5
2022-10-13T09:51:11.414Z,20.2
2022-10-13T09:52:13.894Z,20.4
2022-10-13T09:53:16.398Z,20.4
2022-10-13T09:54:18.604Z,20.6
2022-10-13T09:55:20.515Z,20.3
2022-10-13T09:56:22.756Z,20.4
2022-10-13T09:57:24.959Z,20.5
2022-10-13T09:58:27.506Z,20.4
2022-10-13T09:59:29.708Z,20.4
2022-10-13T10:00:32.204Z,20.3
2022-10-13T10:01:34.403Z,20.3
2022-10-13T10:02:36.613Z,20.4
2022-10-13T10:03:39.431Z,20.4
2022-10-13T10:04:42.146Z,20.4
2022-10-13T10:05:44.643Z,20.4
2022-10-13T10:06:47.140Z,20.3
2022-10-13T10:07:49.618Z,20.3
2022-10-13T10:09:56.607Z,20.3
2022-10-13T10:10:58.796Z,20.4
2022-10-13T10:12:01.053Z,20.4
2022-10-13T10:13:03.268Z,20.2
2022-10-13T10:14:05.510Z,20.4
2022-10-13T10:15:07.986Z,20.5
2022-10-13T10:16:10.452Z,20.3
2022-10-13T10:17:12.422Z,20.3
2022-10-13T10:18:14.954Z,20.4
2022-10-13T10:19:16.640Z,20.3
2022-10-13T10:20:19.129Z,20.4
2022-10-13T10:21:21.064Z,20.6
2022-10-13T10:22:23.455Z,20.3
2022-10-13T10:23:25.934Z,20.2
2022-10-13T10:24:27.852Z,20.5
2022-10-13T10:25:30.466Z,20.3
2022-10-13T10:26:33.455Z,20.4
2022-10-13T10:28:41.095Z,20.3
2022-10-13T10:29:44.022Z,20.4
2022-10-13T10:30:45.930Z,20.4
2022-10-13T10:31:48.144Z,20.3
2022-10-13T10:32:49.788Z,20.4
2022-10-13T10:33:52.279Z,20.3
2022-10-13T10:34:54.766Z,20.3
2022-10-13T10:35:57.008Z,20.4
2022-10-13T10:36:59.482Z,20.4
2022-10-13T10:38:01.440Z,20.3
2022-10-13T10:39:03.966Z,20.4
2022-10-13T10:40:05.892Z,20.4
2022-10-13T10:41:08.522Z,20.3
2022-10-13T10:42:10.750Z,20.5
2022-10-13T10:43:12.404Z,20.3
2022-10-13T10:44:14.365Z,20.3
2022-10-13T10:45:16.979Z,20.3
2022-10-13T10:46:19.471Z,20.2
2022-10-13T10:48:26.387Z,20.4
2022-10-13T10:49:28.890Z,20.3
2022-10-13T10:50:30.790Z,20.4
2022-10-13T10:51:33.266Z,20.2
2022-10-13T10:52:35.184Z,20.3
2022-10-13T10:53:37.394Z,20.5
2022-10-13T10:54:39.336Z,20.3
2022-10-13T10:55:45.788Z,20.4
2022-10-13T10:56:48.281Z,20.5
2022-10-13T10:57:50.476Z,20.4
2022-10-13T10:58:52.679Z,20.4
2022-10-13T10:59:54.899Z,20.4
2022-10-13T11:00:57.470Z,20.4
2022-10-13T11:01:59.117Z,20.5
2022-10-13T11:03:01.620Z,20.3
2022-10-13T11:04:04.098Z,20.3
2022-10-13T11:05:07.201Z,20.3
2022-10-13T11:06:08.561Z,20.4
2022-10-13T11:07:10.789Z,20.4
2022-10-13T11:08:12.427Z,20.4
2022-10-13T11:09:14.636Z,20.4
2022-10-13T11:10:17.170Z,20.3
2022-10-13T11:12:24.665Z,20.5
2022-10-13T11:13:27.183Z,20.4
2022-10-13T11:14:29.685Z,20.5
2022-10-13T11:15:31.375Z,20.4
2022-10-13T11:16:33.830Z,20.2
2022-10-13T11:17:35.744Z,20.5
2022-10-13T11:18:37.940Z,20.4
2022-10-13T11:19:40.435Z,20.5
2022-10-13T11:20:42.650Z,20.3
2022-10-13T11:21:44.846Z,20.3
2022-10-13T11:22:46.491Z,20.3
2022-10-13T11:23:48.727Z,20.4
2022-10-13T11:24:50.952Z,20.3
2022-10-13T11:25:53.430Z,20.4
2022-10-13T11:26:55.920Z,20.4
2022-10-13T11:27:58.422Z,20.4
2022-10-13T11:29:00.642Z,20.4
2022-10-13T11:30:02.833Z,20.5
2022-10-13T11:31:04.773Z,20.4
2022-10-13T11:32:07.387Z,20.4
2022-10-13T11:33:09.292Z,20.4
2022-10-13T11:34:11.514Z,20.3
2022-10-13T11:35:13.710Z,20.4
2022-10-13T11:36:15.925Z,20.3
2022-10-13T11:37:18.109Z,20.3
2022-10-13T11:38:20.021Z,20.4
2022-10-13T11:39:22.341Z,20.3
2022-10-13T11:40:24.781Z,20.2
2022-10-13T11:41:26.977Z,20.4
2022-10-13T11:42:28.887Z,20.3
2022-10-13T11:43:31.385Z,20.3
2022-10-13T11:44:33.862Z,20.3
2022-10-13T11:45:36.341Z,20.4
2022-10-13T11:46:38.685Z,20.4
2022-10-13T11:47:41.324Z,20.4
2022-10-13T11:48:43.536Z,20.4
2022-10-13T11:49:46.041Z,20.2
2022-10-13T11:50:48.519Z,20.4
2022-10-13T11:51:50.714Z,20.4
2022-10-13T11:52:53.197Z,20.4
2022-10-13T11:53:55.118Z,20.4
2022-10-13T11:54:57.419Z,20.3
2022-10-13T11:55:59.706Z,20.4
2022-10-13T11:57:01.633Z,20.3
2022-10-13T11:58:03.843Z,20.3
2022-10-13T11:59:06.116Z,20.3
2022-10-13T12:00:08.313Z,20.3
2022-10-13T12:01:10.792Z,20.4
2022-10-13T12:02:13.021Z,20.4
2022-10-13T12:03:19.094Z,20.3
2022-10-13T12:04:21.441Z,20.3
2022-10-13T12:05:23.921Z,20.4
2022-10-13T12:06:26.400Z,20.4
2022-10-13T12:07:28.321Z,20.3
2022-10-13T12:08:30.546Z,20.2
2022-10-13T12:09:33.025Z,20.4
2022-10-13T12:10:34.954Z,20.4
2022-10-13T12:11:36.873Z,20.4
2022-10-13T12:12:39.053Z,20.3
2022-10-13T12:13:41.567Z,20.4
2022-10-13T12:14:44.114Z,20.4
2022-10-13T12:15:46.318Z,20.4
2022-10-13T12:16:48.591Z,20.4
2022-10-13T12:17:51.300Z,20.2
2022-10-13T12:18:53.803Z,20.5
2022-10-13T12:19:56.066Z,20.3
2022-10-13T12:20:58.274Z,20.4
2022-10-13T12:22:00.474Z,20.4
2022-10-13T12:23:02.388Z,20.4
2022-10-13T12:24:04.294Z,20.4
2022-10-13T12:25:06.773Z,20.3
2022-10-13T12:26:09.249Z,20.4
2022-10-13T12:27:11.724Z,20.3
2022-10-13T12:28:14.294Z,20.4
2022-10-13T12:29:17.029Z,20.3
2022-10-13T12:30:19.538Z,20.2
2022-10-13T12:31:22.030Z,20.5
2022-10-13T12:32:24.249Z,20.3
2022-10-13T12:33:25.914Z,20.4
2022-10-13T12:34:28.419Z,20.4
2022-10-13T12:35:30.951Z,20.3
2022-10-13T12:36:33.445Z,20.4
2022-10-13T12:37:35.659Z,20.4
2022-10-13T12:38:37.877Z,20.3
2022-10-13T12:39:40.369Z,20.4
2022-10-13T12:40:42.856Z,20.3
2022-10-13T12:41:45.121Z,20.6
2022-10-13T12:42:47.647Z,20.5
2022-10-13T12:43:50.283Z,20.4
2022-10-13T12:44:52.796Z,20.3
2022-10-13T12:45:55.099Z,20.3
2022-10-13T12:46:57.576Z,20.3
2022-10-13T12:47:59.555Z,20.4
2022-10-13T12:49:01.532Z,20.3
2022-10-13T12:50:04.080Z,20.3
2022-10-13T12:51:07.133Z,20.3
2022-10-13T12:52:09.345Z,20.4
2022-10-13T12:53:11.559Z,20.3
2022-10-13T12:54:14.097Z,20.3
2022-10-13T12:55:16.273Z,20.4
2022-10-13T12:56:18.489Z,20.4
2022-10-13T12:57:20.975Z,20.1
2022-10-13T12:58:23.468Z,20.4
2022-10-13T12:59:25.722Z,20.4
2022-10-13T13:00:27.858Z,20.3
2022-10-13T13:01:30.791Z,20.4
2022-10-13T13:02:33.323Z,20.4
2022-10-13T13:03:35.887Z,20.5
2022-10-13T13:04:38.394Z,20.4
2022-10-13T13:05:40.946Z,20.4
2022-10-13T13:06:43.226Z,20.2
2022-10-13T13:07:45.461Z,20.4
2022-10-13T13:08:47.948Z,20.4
2022-10-13T13:09:50.166Z,20.3
2022-10-13T13:10:52.641Z,20.2
2022-10-13T13:11:54.556Z,20.4
2022-10-13T13:12:57.005Z,20.2
2022-10-13T13:13:58.963Z,20.4
2022-10-13T13:15:01.138Z,20.4
2022-10-13T13:16:03.344Z,20.3
2022-10-13T13:17:05.946Z,20.5
2022-10-13T13:18:08.443Z,20.2
2022-10-13T13:19:10.925Z,20.3
2022-10-13T13:20:13.449Z,20.3
2022-10-13T13:21:15.956Z,20.5
2022-10-13T13:22:19.154Z,20.4
2022-10-13T13:23:23.072Z,20.3
2022-10-13T13:25:30.534Z,20.4
2022-10-13T13:26:32.490Z,20.3
2022-10-13T13:27:34.714Z,20.5
2022-10-13T13:28:37.336Z,20.4
2022-10-13T13:29:40.016Z,20.2
2022-10-13T13:30:42.235Z,20.4
2022-10-13T13:31:44.168Z,20.5
2022-10-13T13:32:46.501Z,20.4
2022-10-13T13:33:49.165Z,20.4
2022-10-13T13:34:51.451Z,20.4
2022-10-13T13:35:53.705Z,20.3
2022-10-13T13:36:56.276Z,20.3
2022-10-13T13:37:58.546Z,20.3
2022-10-13T13:39:00.755Z,20.4
2022-10-13T13:40:03.079Z,20.4
2022-10-13T13:41:05.720Z,20.3
2022-10-13T13:42:07.931Z,20.2
2022-10-13T13:43:10.123Z,20.4
2022-10-13T13:44:12.604Z,20.4
2022-10-13T13:45:15.088Z,20.3
2022-10-13T13:46:17.572Z,20.4
2022-10-13T13:47:20.522Z,20.4
2022-10-13T13:48:24.448Z,20.4
2022-10-13T13:49:26.953Z,20.4
2022-10-13T13:50:28.945Z,20.4
2022-10-13T13:51:31.209Z,20.3
2022-10-13T13:52:33.790Z,20.4
2022-10-13T13:53:36.085Z,20.5
2022-10-13T13:54:38.290Z,20.3
2022-10-13T13:55:40.216Z,20.3
2022-10-13T13:56:42.417Z,20.3
2022-10-13T13:57:44.397Z,20.2
2022-10-13T13:58:46.896Z,20.3
2022-10-13T13:59:49.384Z,20.4
2022-10-13T14:00:51.340Z,20.4
2022-10-13T14:01:53.922Z,20.4
2022-10-13T14:02:56.501Z,20.3
2022-10-13T14:03:58.727Z,20.4
2022-10-13T14:05:01.212Z,20.4
2022-10-13T14:06:03.693Z,20.2
2022-10-13T14:07:05.921Z,20.5
2022-10-13T14:08:08.436Z,20.4
2022-10-13T14:09:10.963Z,20.4
2022-10-13T14:10:12.864Z,20.4
2022-10-13T14:11:15.097Z,20.3
2022-10-13T14:12:17.488Z,20.4
2022-10-13T14:13:21.474Z,20.3